KVPZ/VPZ METAR and TAF weather

Enter ICAO airport designator
Station Type Date Time Source
KVPZ METAR 2020/04/02 01:56 UTC NOAA

KVPZ 020156Z AUTO 36003KT 6SM BR BKN002 02/00 A3012 RMK AO2 SLP206 T00220000


Station Type Date Time Source
KVPZ Decoded METAR 2020/04/02 01:56 UTC NOAA

VALPARAISO PORTER CO MUNI, IN, United States (KVPZ) 41-27N 087-00W 231M
Apr 01, 2020 - 09:56 PM EDT / 2020.04.02 0156 UTC
Wind: from the N (360 degrees) at 3 MPH (3 KT):0
Visibility: 6 mile(s):0
Sky conditions: mostly cloudy
Weather: mist
Temperature: 36.0 F (2.2 C)
Dew Point: 32.0 F (0.0 C)
Relative Humidity: 85%
Pressure (altimeter): 30.12 in. Hg (1019 hPa)
ob: KVPZ 020156Z AUTO 36003KT 6SM BR BKN002 02/00 A3012 RMK AO2 SLP206 T00220000
cycle: 2

Station Type Date Time Source
KVPZ TAF UTC NOAA

Error!

Example: see airport list